createdAt,value
2023-03-22T00:02:39.582Z,73.43
2023-03-22T00:05:12.179Z,74.38
2023-03-22T00:07:48.161Z,74.04
2023-03-22T00:10:18.166Z,74.64
2023-03-22T00:12:45.473Z,75.04
2023-03-22T00:15:25.135Z,75.10
2023-03-22T00:17:56.665Z,74.31
2023-03-22T00:20:37.271Z,74.36
2023-03-22T00:23:41.341Z,74.16
2023-03-22T00:26:11.589Z,74.58
2023-03-22T00:28:52.379Z,75.31
2023-03-22T00:31:29.046Z,75.18
2023-03-22T00:36:46.122Z,73.61
2023-03-22T00:39:17.783Z,73.32
2023-03-22T00:41:48.129Z,73.85
2023-03-22T00:44:21.767Z,74.25
2023-03-22T00:47:01.350Z,75.06
2023-03-22T00:52:24.389Z,75.13
2023-03-22T00:54:51.788Z,74.71
2023-03-22T00:57:28.502Z,74.85
2023-03-22T00:59:59.048Z,74.49
2023-03-22T01:02:32.757Z,74.09
2023-03-22T01:05:01.351Z,74.00
2023-03-22T01:07:46.079Z,73.90
2023-03-22T01:10:13.160Z,73.87
2023-03-22T01:12:40.457Z,74.24
2023-03-22T01:15:13.238Z,74.58
2023-03-22T01:18:02.580Z,74.76
2023-03-22T01:20:53.633Z,75.69
2023-03-22T01:23:43.953Z,76.22
2023-03-22T01:26:24.986Z,75.72
2023-03-22T01:29:00.141Z,75.15
2023-03-22T01:31:36.283Z,74.68
2023-03-22T01:34:09.878Z,74.41
2023-03-22T01:37:02.759Z,74.23
2023-03-22T01:39:53.701Z,73.62
2023-03-22T01:42:29.476Z,73.47
2023-03-22T01:46:10.588Z,73.21
2023-03-22T01:49:16.559Z,74.55
2023-03-22T01:51:46.113Z,74.95
2023-03-22T01:54:26.489Z,74.63
2023-03-22T01:56:56.395Z,73.70
2023-03-22T01:59:26.264Z,73.83
2023-03-22T02:01:53.183Z,74.04
2023-03-22T02:04:38.585Z,73.76
2023-03-22T02:07:10.478Z,74.92
2023-03-22T02:09:43.121Z,74.58
2023-03-22T02:12:34.444Z,74.74
2023-03-22T02:15:53.639Z,75.70
2023-03-22T02:19:14.438Z,75.51
2023-03-22T02:22:00.001Z,75.48
2023-03-22T02:24:48.334Z,75.24
2023-03-22T02:27:55.446Z,74.83
2023-03-22T02:30:44.095Z,74.84
2023-03-22T02:33:48.337Z,73.96
2023-03-22T02:36:58.048Z,74.87
2023-03-22T02:40:23.915Z,75.13
2023-03-22T02:43:12.609Z,74.85
2023-03-22T02:46:15.702Z,74.90
2023-03-22T02:49:15.552Z,76.04
2023-03-22T02:52:07.965Z,75.73
2023-03-22T02:55:10.864Z,75.81
2023-03-22T02:57:56.819Z,75.34
2023-03-22T03:03:18.928Z,76.00
2023-03-22T03:05:50.212Z,76.47
2023-03-22T03:08:18.321Z,75.56
2023-03-22T03:10:46.521Z,75.02
2023-03-22T03:13:21.035Z,75.15
2023-03-22T03:20:02.492Z,74.63
2023-03-22T03:22:57.665Z,74.51
2023-03-22T03:25:51.871Z,74.34
2023-03-22T03:32:28.809Z,74.39
2023-03-22T03:35:06.935Z,74.90
2023-03-22T03:37:47.898Z,75.18
2023-03-22T03:40:28.953Z,75.69
2023-03-22T03:45:58.636Z,76.21
2023-03-22T03:48:33.841Z,76.06
2023-03-22T03:51:06.448Z,76.28
2023-03-22T03:53:36.467Z,76.82
2023-03-22T03:56:14.111Z,76.58
2023-03-22T03:58:46.625Z,76.49
2023-03-22T04:01:16.869Z,76.41
2023-03-22T04:03:44.719Z,75.70
2023-03-22T04:06:11.438Z,75.06
2023-03-22T04:08:38.146Z,75.28
2023-03-22T04:11:13.806Z,75.30
2023-03-22T04:13:40.797Z,75.01
2023-03-22T04:16:07.802Z,75.19
2023-03-22T04:18:34.468Z,75.83
2023-03-22T04:21:01.353Z,76.06
2023-03-22T04:23:28.152Z,75.70
2023-03-22T04:26:15.029Z,75.80
2023-03-22T04:29:24.738Z,75.63
2023-03-22T04:32:09.533Z,76.16
2023-03-22T04:37:17.318Z,75.99
2023-03-22T04:39:55.929Z,75.49
2023-03-22T04:45:04.214Z,76.43
2023-03-22T04:47:33.831Z,76.44
2023-03-22T04:50:00.590Z,76.07
2023-03-22T04:55:18.571Z,76.60
2023-03-22T04:57:57.510Z,75.95
2023-03-22T05:00:48.911Z,76.41
2023-03-22T05:03:26.157Z,76.52
2023-03-22T05:06:01.274Z,76.58
2023-03-22T05:08:36.149Z,76.10
2023-03-22T05:11:30.772Z,76.64
2023-03-22T05:14:10.169Z,76.87
2023-03-22T05:16:40.694Z,76.85
2023-03-22T05:19:32.512Z,77.04
2023-03-22T05:22:31.389Z,76.85
2023-03-22T05:25:07.753Z,77.07
2023-03-22T05:27:41.526Z,77.35
2023-03-22T05:30:15.651Z,77.29
2023-03-22T05:32:47.498Z,77.13
2023-03-22T05:35:30.889Z,77.29
2023-03-22T05:38:13.312Z,76.75
2023-03-22T05:40:44.494Z,76.72
2023-03-22T05:43:22.190Z,76.45
2023-03-22T05:45:53.228Z,76.94
2023-03-22T05:48:43.253Z,77.53
2023-03-22T05:51:19.864Z,77.28
2023-03-22T05:53:55.564Z,76.81
2023-03-22T05:56:25.830Z,76.85
2023-03-22T06:01:47.117Z,75.87
2023-03-22T06:04:13.803Z,75.21
2023-03-22T06:06:42.031Z,75.44
2023-03-22T06:09:16.888Z,75.59
2023-03-22T06:12:01.258Z,75.25
2023-03-22T06:14:30.616Z,75.39
2023-03-22T06:16:57.352Z,75.57
2023-03-22T06:19:27.177Z,74.88
2023-03-22T06:21:56.264Z,74.93
2023-03-22T06:24:34.885Z,75.68
2023-03-22T06:27:01.674Z,75.22
2023-03-22T06:29:33.912Z,74.49
2023-03-22T06:32:05.394Z,73.88
2023-03-22T06:34:58.446Z,72.71
2023-03-22T06:37:25.968Z,72.83
2023-03-22T06:39:52.790Z,72.79
2023-03-22T06:42:23.960Z,72.09
2023-03-22T06:44:53.760Z,71.52
2023-03-22T06:47:34.718Z,72.57
2023-03-22T06:53:32.419Z,70.77
2023-03-22T06:56:05.506Z,70.88
2023-03-22T06:58:39.976Z,70.09
2023-03-22T07:01:19.952Z,70.81
2023-03-22T07:03:48.892Z,69.65
2023-03-22T07:06:17.231Z,69.27
2023-03-22T07:08:44.415Z,68.64
2023-03-22T07:11:11.287Z,68.76
2023-03-22T07:13:38.018Z,68.21
2023-03-22T07:16:43.513Z,68.05
2023-03-22T07:19:12.897Z,67.64
2023-03-22T07:21:47.163Z,67.59
2023-03-22T07:24:14.021Z,67.61
2023-03-22T07:26:59.014Z,67.25
2023-03-22T07:29:39.102Z,65.72
2023-03-22T07:32:20.152Z,65.24
2023-03-22T07:35:04.203Z,64.96
2023-03-22T07:37:37.007Z,64.43
2023-03-22T07:40:17.732Z,64.16
2023-03-22T07:42:51.408Z,63.21
2023-03-22T07:45:23.305Z,62.71
2023-03-22T07:47:56.400Z,62.00
2023-03-22T07:50:23.373Z,61.64
2023-03-22T07:52:50.245Z,60.28
2023-03-22T07:55:31.670Z,61.54
2023-03-22T07:58:01.872Z,61.83
2023-03-22T08:00:29.649Z,61.43
2023-03-22T08:03:07.209Z,60.75
2023-03-22T08:05:46.517Z,59.29
2023-03-22T08:08:13.836Z,57.84
2023-03-22T08:10:43.638Z,57.73
2023-03-22T08:13:13.584Z,57.85
2023-03-22T08:16:19.831Z,58.61
2023-03-22T08:19:09.899Z,58.16
2023-03-22T08:21:52.723Z,58.74
2023-03-22T08:27:08.007Z,58.02
2023-03-22T08:29:56.061Z,58.29
2023-03-22T08:32:36.857Z,58.86
2023-03-22T08:35:14.993Z,59.47
2023-03-22T08:37:46.592Z,59.50
2023-03-22T08:40:18.034Z,58.54
2023-03-22T08:42:52.991Z,59.56
2023-03-22T08:45:34.356Z,59.18
2023-03-22T08:48:04.192Z,60.27
2023-03-22T08:50:39.913Z,59.94
2023-03-22T08:53:06.887Z,59.06
2023-03-22T08:55:47.483Z,58.16
2023-03-22T08:58:52.929Z,59.61
2023-03-22T09:01:30.020Z,59.68
2023-03-22T09:04:04.104Z,59.51
2023-03-22T09:06:50.024Z,59.59
2023-03-22T09:09:23.512Z,58.49
2023-03-22T09:11:50.494Z,59.09
2023-03-22T09:14:17.846Z,59.19
2023-03-22T09:16:44.564Z,59.63
2023-03-22T09:19:17.339Z,59.17
2023-03-22T09:21:53.859Z,59.05
2023-03-22T09:24:35.043Z,59.38
2023-03-22T09:27:09.094Z,59.35
2023-03-22T09:30:08.996Z,59.00
2023-03-22T09:32:49.481Z,59.22
2023-03-22T09:35:19.174Z,59.00
2023-03-22T09:37:48.345Z,59.04
2023-03-22T09:40:22.137Z,59.17
2023-03-22T09:42:57.029Z,59.33
2023-03-22T09:45:43.425Z,59.23
2023-03-22T09:48:48.265Z,58.98
2023-03-22T09:51:43.491Z,58.96
2023-03-22T09:54:39.915Z,58.61
2023-03-22T09:57:43.574Z,58.71
2023-03-22T10:00:24.171Z,56.61
2023-03-22T10:03:05.590Z,56.62
2023-03-22T10:06:16.859Z,56.92
2023-03-22T10:08:55.463Z,55.50
2023-03-22T10:11:59.145Z,55.42
2023-03-22T10:14:48.187Z,56.57
2023-03-22T10:17:25.454Z,56.35
2023-03-22T10:20:06.358Z,55.99
2023-03-22T10:23:05.515Z,56.70
2023-03-22T10:28:39.868Z,55.54
2023-03-22T10:31:24.649Z,56.29
2023-03-22T10:33:55.658Z,54.98
2023-03-22T10:36:31.928Z,55.21
2023-03-22T10:39:19.042Z,55.71
2023-03-22T10:41:51.150Z,56.09
2023-03-22T10:44:40.170Z,54.91
2023-03-22T10:47:13.493Z,54.40
2023-03-22T10:50:07.419Z,54.33
2023-03-22T10:53:06.200Z,54.31
2023-03-22T10:55:33.173Z,54.07
2023-03-22T10:58:40.443Z,55.05
2023-03-22T11:04:18.803Z,53.25
2023-03-22T11:06:56.251Z,54.02
2023-03-22T11:09:28.793Z,54.26
2023-03-22T11:12:03.169Z,54.30
2023-03-22T11:14:54.948Z,54.36
2023-03-22T11:17:26.894Z,53.35
2023-03-22T11:20:07.654Z,53.38
2023-03-22T11:22:38.713Z,53.81
2023-03-22T11:25:22.663Z,53.25
2023-03-22T11:28:23.350Z,53.78
2023-03-22T11:31:20.760Z,53.73
2023-03-22T11:34:02.820Z,50.64
2023-03-22T11:36:37.620Z,52.26
2023-03-22T11:39:08.325Z,52.84
2023-03-22T11:41:54.466Z,52.31
2023-03-22T11:44:36.652Z,49.57
2023-03-22T11:47:11.343Z,50.58
2023-03-22T11:49:50.710Z,50.33
2023-03-22T11:52:30.245Z,50.26
2023-03-22T11:55:02.890Z,50.30
2023-03-22T11:57:36.667Z,51.34
2023-03-22T12:00:40.889Z,51.71
2023-03-22T12:03:18.896Z,51.63
2023-03-22T12:05:50.022Z,50.76
2023-03-22T12:08:24.282Z,50.73
2023-03-22T12:11:16.284Z,50.87
2023-03-22T12:14:14.698Z,51.55
2023-03-22T12:16:51.249Z,51.33
2023-03-22T12:19:38.880Z,51.46
2023-03-22T12:22:27.616Z,52.68
2023-03-22T12:24:59.030Z,51.38
2023-03-22T12:27:37.795Z,49.19
2023-03-22T12:30:28.625Z,49.09
2023-03-22T12:33:13.264Z,51.07
2023-03-22T12:35:44.828Z,52.79
2023-03-22T12:42:19.773Z,54.45
2023-03-22T12:45:15.885Z,54.98
2023-03-22T12:48:11.638Z,53.32
2023-03-22T12:50:56.332Z,53.78
2023-03-22T12:53:51.601Z,51.25
2023-03-22T12:56:38.341Z,51.86
2023-03-22T12:59:33.219Z,52.48
2023-03-22T13:02:15.745Z,52.78
2023-03-22T13:05:09.795Z,51.37
2023-03-22T13:07:57.307Z,51.79
2023-03-22T13:10:45.695Z,51.80
2023-03-22T13:13:34.724Z,52.39
2023-03-22T13:16:17.574Z,53.11
2023-03-22T13:19:22.578Z,53.99
2023-03-22T13:22:19.208Z,53.02
2023-03-22T13:25:19.964Z,54.15
2023-03-22T13:28:04.929Z,55.14
2023-03-22T13:30:58.066Z,54.00
2023-03-22T13:34:09.133Z,54.02
2023-03-22T13:36:37.578Z,53.94
2023-03-22T13:39:23.089Z,54.52
2023-03-22T13:42:03.874Z,54.05
2023-03-22T13:44:37.363Z,54.23
2023-03-22T13:47:30.382Z,54.50
2023-03-22T13:50:29.223Z,55.27
2023-03-22T13:53:09.214Z,55.63
2023-03-22T13:55:54.451Z,54.64
2023-03-22T13:58:33.166Z,54.83
2023-03-22T14:01:05.033Z,55.13
2023-03-22T14:03:39.396Z,55.05
2023-03-22T14:06:32.481Z,55.34
2023-03-22T14:09:45.611Z,53.98
2023-03-22T14:12:24.191Z,53.75
2023-03-22T14:15:24.691Z,53.97
2023-03-22T14:18:04.317Z,54.75
2023-03-22T14:20:41.789Z,55.07
2023-03-22T14:54:00.945Z,54.90
2023-03-22T14:57:02.952Z,55.02
2023-03-22T14:59:37.813Z,55.11
2023-03-22T15:02:34.508Z,55.48
2023-03-22T15:05:23.622Z,54.22
2023-03-22T15:08:21.298Z,52.07
2023-03-22T15:11:20.452Z,51.32
2023-03-22T15:13:52.223Z,52.38
2023-03-22T15:16:24.428Z,53.52
2023-03-22T15:19:17.545Z,52.06
2023-03-22T15:21:47.900Z,53.12
2023-03-22T15:24:38.867Z,53.85
2023-03-22T15:27:24.068Z,54.48
2023-03-22T15:29:58.606Z,54.57
2023-03-22T15:32:29.841Z,54.88
2023-03-22T15:35:11.617Z,54.83
2023-03-22T15:37:47.874Z,55.46
2023-03-22T15:40:42.190Z,55.54
2023-03-22T15:43:17.226Z,55.65
2023-03-22T15:46:14.753Z,55.18
2023-03-22T15:49:51.835Z,52.85
2023-03-22T15:52:40.406Z,54.24
2023-03-22T15:55:19.547Z,53.77
2023-03-22T15:58:04.335Z,54.06
2023-03-22T16:00:55.624Z,54.50
2023-03-22T16:03:55.044Z,54.90
2023-03-22T16:06:47.856Z,55.05
2023-03-22T16:09:24.690Z,54.56
2023-03-22T16:12:00.923Z,54.73
2023-03-22T16:14:28.396Z,54.82
2023-03-22T16:16:55.419Z,54.85
2023-03-22T16:19:28.460Z,54.48
2023-03-22T16:22:31.667Z,55.00
2023-03-22T16:25:01.044Z,55.07
2023-03-22T16:27:28.557Z,55.32
2023-03-22T16:29:55.446Z,55.11
2023-03-22T16:32:28.115Z,52.57
2023-03-22T16:35:00.843Z,54.72
2023-03-22T16:37:42.600Z,53.79
2023-03-22T16:40:28.272Z,54.89
2023-03-22T16:42:56.814Z,55.21
2023-03-22T16:45:47.375Z,54.60
2023-03-22T16:48:22.451Z,55.22
2023-03-22T16:50:58.464Z,55.13
2023-03-22T16:53:40.435Z,54.20
2023-03-22T16:56:22.171Z,55.16
2023-03-22T16:58:50.123Z,55.32
2023-03-22T17:01:29.301Z,55.34
2023-03-22T17:04:10.198Z,55.57
2023-03-22T17:06:57.334Z,55.53
2023-03-22T17:09:28.089Z,55.48
2023-03-22T17:11:56.388Z,55.39
2023-03-22T17:14:26.038Z,55.56
2023-03-22T17:16:59.374Z,55.47
2023-03-22T17:19:26.542Z,55.81
2023-03-22T17:21:59.523Z,54.96
2023-03-22T17:24:31.639Z,55.89
2023-03-22T17:27:00.003Z,56.19
2023-03-22T17:29:41.638Z,56.10
2023-03-22T17:33:01.572Z,56.08
2023-03-22T17:35:38.406Z,56.55
2023-03-22T17:38:33.261Z,56.47
2023-03-22T17:41:16.018Z,56.46
2023-03-22T17:43:54.594Z,56.53
2023-03-22T17:47:03.946Z,56.47
2023-03-22T17:49:28.452Z,56.57
2023-03-22T17:51:55.747Z,56.98
2023-03-22T17:59:50.735Z,56.69
2023-03-22T18:02:39.153Z,56.47
2023-03-22T18:05:17.444Z,56.45
2023-03-22T18:08:13.330Z,56.94
2023-03-22T18:10:39.520Z,56.72
2023-03-22T18:13:10.304Z,56.43
2023-03-22T18:15:42.185Z,56.26
2023-03-22T18:18:24.867Z,56.53
2023-03-22T18:20:59.604Z,56.42
2023-03-22T18:23:34.623Z,56.74
2023-03-22T18:26:29.437Z,56.55
2023-03-22T18:29:03.015Z,56.68
2023-03-22T18:31:36.634Z,56.70
2023-03-22T18:34:24.519Z,56.97
2023-03-22T18:37:02.279Z,56.90
2023-03-22T18:45:17.402Z,57.26
2023-03-22T18:47:55.651Z,57.51
2023-03-22T18:50:27.498Z,57.63
2023-03-22T18:53:17.896Z,57.37
2023-03-22T18:58:48.932Z,58.23
2023-03-22T19:01:16.051Z,57.67
2023-03-22T19:03:43.041Z,58.32
2023-03-22T19:06:18.587Z,58.49
2023-03-22T19:08:49.311Z,58.67
2023-03-22T19:11:23.842Z,59.08
2023-03-22T19:14:49.088Z,58.96
2023-03-22T19:16:56.604Z,59.36
2023-03-22T19:19:41.159Z,59.17
2023-03-22T19:22:34.050Z,59.71
2023-03-22T19:25:08.251Z,60.07
2023-03-22T19:27:37.173Z,59.78
2023-03-22T19:30:06.943Z,59.37
2023-03-22T19:32:39.076Z,59.91
2023-03-22T19:35:17.342Z,59.66
2023-03-22T19:37:45.010Z,60.03
2023-03-22T19:43:05.042Z,60.63
2023-03-22T19:45:35.064Z,60.61
2023-03-22T19:48:08.405Z,60.81
2023-03-22T19:50:39.443Z,61.18
2023-03-22T19:53:44.325Z,60.95
2023-03-22T19:56:08.977Z,60.90
2023-03-22T19:58:38.049Z,61.03
2023-03-22T20:01:11.986Z,61.01
2023-03-22T20:03:41.100Z,60.75
2023-03-22T20:06:20.233Z,61.19
2023-03-22T20:08:57.951Z,61.56
2023-03-22T20:11:34.953Z,62.07
2023-03-22T20:14:08.937Z,62.40
2023-03-22T20:16:39.688Z,62.60
2023-03-22T20:19:06.709Z,62.84
2023-03-22T20:21:38.880Z,63.04
2023-03-22T20:24:53.074Z,63.37
2023-03-22T20:27:24.036Z,62.96
2023-03-22T20:29:53.846Z,63.37
2023-03-22T20:32:22.087Z,62.96
2023-03-22T20:34:50.414Z,63.50
2023-03-22T20:37:23.756Z,63.16
2023-03-22T20:40:01.725Z,62.74
2023-03-22T20:42:37.359Z,63.09
2023-03-22T20:45:12.976Z,62.70
2023-03-22T20:47:52.841Z,63.07
2023-03-22T20:50:26.269Z,63.67
2023-03-22T20:53:22.970Z,63.61
2023-03-22T20:56:01.071Z,63.35
2023-03-22T20:58:38.187Z,63.72
2023-03-22T21:01:31.067Z,62.95
2023-03-22T21:04:02.743Z,62.93
2023-03-22T21:06:33.569Z,63.13
2023-03-22T21:09:20.741Z,63.33
2023-03-22T21:12:36.402Z,63.27
2023-03-22T21:15:18.596Z,63.56
2023-03-22T21:17:57.270Z,63.07
2023-03-22T21:20:36.940Z,62.75
2023-03-22T21:23:07.674Z,63.27
2023-03-22T21:28:32.628Z,63.35
2023-03-22T21:31:00.542Z,63.79
2023-03-22T21:33:27.401Z,63.50
2023-03-22T21:35:54.957Z,64.07
2023-03-22T21:38:24.962Z,64.43
2023-03-22T21:41:01.539Z,64.57
2023-03-22T21:43:34.388Z,64.75
2023-03-22T21:49:25.039Z,65.11
2023-03-22T21:52:08.565Z,65.51
2023-03-22T21:54:48.534Z,66.06
2023-03-22T21:57:21.483Z,66.34
2023-03-22T22:00:06.473Z,66.18
2023-03-22T22:02:36.607Z,65.89
2023-03-22T22:05:06.720Z,66.03
2023-03-22T22:07:33.814Z,66.19
2023-03-22T22:10:14.646Z,65.76
2023-03-22T22:12:42.470Z,65.28
2023-03-22T22:15:24.706Z,63.81
2023-03-22T22:18:37.876Z,63.12
2023-03-22T22:21:16.206Z,62.24
2023-03-22T22:23:52.316Z,62.75
2023-03-22T22:26:23.361Z,63.13
2023-03-22T22:29:05.522Z,62.70
2023-03-22T22:31:33.559Z,61.99
2023-03-22T22:34:11.162Z,61.50
2023-03-22T22:36:51.752Z,61.32
2023-03-22T22:39:30.044Z,61.09
2023-03-22T22:41:56.917Z,61.31
2023-03-22T22:44:24.181Z,61.50
2023-03-22T22:46:51.150Z,61.25
2023-03-22T22:49:30.587Z,61.22
2023-03-22T22:52:16.771Z,61.03
2023-03-22T22:55:05.838Z,61.70
2023-03-22T22:57:38.313Z,62.05
2023-03-22T23:00:15.076Z,63.25
2023-03-22T23:02:55.058Z,62.92
2023-03-22T23:05:31.927Z,63.65
2023-03-22T23:08:16.056Z,63.77
2023-03-22T23:10:57.626Z,64.28
2023-03-22T23:13:30.388Z,63.51
2023-03-22T23:16:16.652Z,63.51
2023-03-22T23:18:54.440Z,64.22
2023-03-22T23:21:34.243Z,64.44
2023-03-22T23:24:03.047Z,64.41
2023-03-22T23:26:41.699Z,64.38
2023-03-22T23:29:27.690Z,64.27
2023-03-22T23:31:54.539Z,64.86
2023-03-22T23:34:31.073Z,65.08
2023-03-22T23:37:00.756Z,65.30
2023-03-22T23:39:54.759Z,65.46
2023-03-22T23:45:03.716Z,65.54
2023-03-22T23:47:33.714Z,65.32
2023-03-22T23:50:10.441Z,65.87
2023-03-22T23:52:46.852Z,65.18
2023-03-22T23:55:13.953Z,65.92
2023-03-22T23:58:02.633Z,65.97
